Terminal Aerodrome Forecast
Issued by NWS

Home | Current Version | Previous Version | Text Only | Print | Product List | Glossary On
Versions: 1 2 3 4 5 6 7 8 9 10 11 12 13
000
FTUS43 KILX 041728
TAFDEC
TAF
KDEC 041728Z 0418/0518 VRB03KT P6SM SCT100 BKN250
     FM042200 VRB04KT P6SM BKN100
     FM050700 10004KT P6SM SCT070 BKN110=

USA.gov is the U.S. government's official web portal to all federal, state and local government web resources and services.